Nearby METAR Reports

 

KLBE - Latrobe/Westmorl, Pennsylvania, USA
Distance from station: SE 16mi, 26km
Updated: Wed, 29-Jun-2016 2:55am EDT
Few Clouds
Few Clouds
 Wind from calm
Wind: Calm
Temperature: 59°F , 15°C
Dew Point: 55°F , 13°C
Humidity: 88%
Barometer: 30.02 inHg , 1016.6 hPa
Clouds: Few Clouds
Visibility: 10 miles , 16 km
Cloud details: Few Clouds 5000 ft
2016/06/29 06:55 KLBE 290655Z AUTO 00000KT 10SM FEW050 15/13 A3002 RMK AO2
KAGC - Pittsburgh/Alleg, Pennsylvania, USA
Distance from station: WSW 18mi, 30km
Updated: Wed, 29-Jun-2016 2:53am EDT
Blowing widespread dust, Clear
Blowing widespread dust, Clear
 Wind from NNW
Wind: NNW 5 mph , 7 km/h
Temperature: 57°F , 14°C
Dew Point: 52°F , 11°C
Humidity: 82%
Barometer: 30.01 inHg , 1016.3 hPa
Summary: Blowing Widespread Dust
Clouds: Clear
Visibility: 10 miles , 16 km
2016/06/29 06:53 KAGC 290653Z 33004KT 10SM BLDU CLR 14/11 A3001 RMK AO2 SLP160 T01440106
 
KBTP - Butler Co., Pennsylvania, USA
Distance from station: NW 29mi, 47km
Updated: Wed, 29-Jun-2016 2:55am EDT
Clear
Clear
 Wind from calm
Wind: Calm
Temperature: 52°F , 11°C
Dew Point: 48°F , 9°C
Humidity: 88%
Barometer: 30.05 inHg , 1017.6 hPa
Clouds: Clear
Visibility: 10 miles , 16 km
2016/06/29 06:55 KBTP 290655Z AUTO 00000KT 10SM CLR 11/09 A3005 RMK AO1
KIDI - Indiana/Stewart, Pennsylvania, USA
Distance from station: ENE 29mi, 47km
Updated: Wed, 29-Jun-2016 2:55am EDT
Clear
Clear
 Wind from calm
Wind: Calm
Temperature: 57°F , 14°C
Dew Point: 54°F , 12°C
Humidity: 88%
Barometer: 30.03 inHg , 1016.9 hPa
Clouds: Clear
Visibility: 10 miles , 16 km
2016/06/29 06:55 KIDI 290655Z AUTO 00000KT 10SM CLR 14/12 A3003 RMK A01
 
KPIT - Pittsburgh, Pennsylvania, USA
Distance from station: W 36mi, 57km
Updated: Wed, 29-Jun-2016 2:51am EDT
Clear
Clear
 Wind from N
Wind: N 5 mph , 7 km/h
Temperature: 59°F , 15°C
Dew Point: 52°F , 11°C
Humidity: 77%
Barometer: 30.02 inHg , 1016.6 hPa
Clouds: Clear
Visibility: 10 miles , 16 km
2016/06/29 06:51 KPIT 290651Z 36004KT 10SM CLR 15/11 A3002 RMK AO2 SLP166 T01500106
KJST - Johnstown, Pennsylvania, USA
Distance from station: ESE 41mi, 66km
Updated: Wed, 29-Jun-2016 2:54am EDT
Clear
Clear
 Wind from NNW
Wind: NNW 6 mph , 9 km/h
Temperature: 57°F , 14°C
Dew Point: 50°F , 10°C
Humidity: 77%
Barometer: 30.00 inHg , 1015.9 hPa
Clouds: Clear
Visibility: 10 miles , 16 km
2016/06/29 06:54 KJST 290654Z AUTO 33005KT 10SM CLR 14/10 A3000 RMK AO2 SLP148 T01390100
 
KAFJ - Washington, Pennsylvania, USA
Distance from station: WSW 42mi, 68km
Updated: Wed, 29-Jun-2016 2:55am EDT
Mostly cloudy
Mostly cloudy
 Wind from N
Wind: N 5 mph , 7 km/h
Temperature: 57°F , 14°C
Dew Point: 52°F , 11°C
Humidity: 82%
Barometer: 30.03 inHg , 1016.9 hPa
Clouds: Mostly cloudy
Visibility: 10 miles , 16 km
Cloud details: Mostly cloudy 6000 ft
2016/06/29 06:55 KAFJ 290655Z AUTO 36004KT 10SM BKN060 14/11 A3003 RMK AO1
KBVI - Beaver Falls Arp, Pennsylvania, USA
Distance from station: WNW 48mi, 77km
Updated: Tue, 28-Jun-2016 8:47pm EDT
NOT Current
Clear
Clear
 Wind from N
Wind: N 8 mph , 13 km/h
Temperature: 66°F , 19°C
Dew Point: 55°F , 13°C
Humidity: 68%
Barometer: 30.01 inHg , 1016.3 hPa
Clouds: Clear
Visibility: 10 miles , 16 km
2016/06/29 00:47 KBVI 290047Z 36007KT 10SM CLR 19/13 A3001 RMK LAST